sensor_id;sensor_type;location;lat;lon;timestamp;P1;durP1;ratioP1;P2;durP2;ratioP2
11839;SDS011;5979;50.800;4.904;2023-12-29T00:00:45;5.97;;;2.17;;
11839;SDS011;5979;50.800;4.904;2023-12-29T00:03:11;3.78;;;2.15;;
11839;SDS011;5979;50.800;4.904;2023-12-29T00:05:36;4.25;;;2.08;;
11839;SDS011;5979;50.800;4.904;2023-12-29T00:08:02;4.25;;;2.15;;
11839;SDS011;5979;50.800;4.904;2023-12-29T00:10:28;7.70;;;2.28;;
11839;SDS011;5979;50.800;4.904;2023-12-29T00:12:54;5.38;;;2.45;;
11839;SDS011;5979;50.800;4.904;2023-12-29T00:15:19;8.45;;;2.42;;
11839;SDS011;5979;50.800;4.904;2023-12-29T00:17:45;7.38;;;3.10;;
11839;SDS011;5979;50.800;4.904;2023-12-29T00:20:12;4.75;;;2.53;;
11839;SDS011;5979;50.800;4.904;2023-12-29T00:22:37;8.32;;;2.30;;
11839;SDS011;5979;50.800;4.904;2023-12-29T00:25:03;7.05;;;2.75;;
11839;SDS011;5979;50.800;4.904;2023-12-29T00:27:30;7.10;;;2.40;;
11839;SDS011;5979;50.800;4.904;2023-12-29T00:29:56;6.28;;;2.67;;
11839;SDS011;5979;50.800;4.904;2023-12-29T00:32:21;5.40;;;2.40;;
11839;SDS011;5979;50.800;4.904;2023-12-29T00:34:47;4.20;;;2.28;;
11839;SDS011;5979;50.800;4.904;2023-12-29T00:37:13;4.88;;;2.55;;
11839;SDS011;5979;50.800;4.904;2023-12-29T00:39:38;4.95;;;2.72;;
11839;SDS011;5979;50.800;4.904;2023-12-29T00:42:07;6.55;;;2.45;;
11839;SDS011;5979;50.800;4.904;2023-12-29T00:44:33;6.65;;;2.00;;
11839;SDS011;5979;50.800;4.904;2023-12-29T00:46:59;4.95;;;2.42;;
11839;SDS011;5979;50.800;4.904;2023-12-29T00:49:25;7.30;;;2.95;;
11839;SDS011;5979;50.800;4.904;2023-12-29T00:51:51;6.07;;;2.40;;
11839;SDS011;5979;50.800;4.904;2023-12-29T00:54:18;7.60;;;2.42;;
11839;SDS011;5979;50.800;4.904;2023-12-29T00:56:50;6.28;;;2.40;;
11839;SDS011;5979;50.800;4.904;2023-12-29T00:59:17;4.82;;;2.15;;
11839;SDS011;5979;50.800;4.904;2023-12-29T01:04:28;5.20;;;2.40;;
11839;SDS011;5979;50.800;4.904;2023-12-29T01:06:54;6.95;;;2.55;;
11839;SDS011;5979;50.800;4.904;2023-12-29T01:09:19;4.50;;;2.60;;
11839;SDS011;5979;50.800;4.904;2023-12-29T01:11:45;4.57;;;2.67;;
11839;SDS011;5979;50.800;4.904;2023-12-29T01:14:11;5.00;;;2.63;;
11839;SDS011;5979;50.800;4.904;2023-12-29T01:16:36;5.45;;;2.53;;
11839;SDS011;5979;50.800;4.904;2023-12-29T01:19:02;12.95;;;3.15;;
11839;SDS011;5979;50.800;4.904;2023-12-29T01:21:28;6.75;;;2.55;;
11839;SDS011;5979;50.800;4.904;2023-12-29T01:23:53;6.57;;;2.38;;
11839;SDS011;5979;50.800;4.904;2023-12-29T01:26:19;7.13;;;2.42;;
11839;SDS011;5979;50.800;4.904;2023-12-29T01:28:45;7.40;;;2.60;;
11839;SDS011;5979;50.800;4.904;2023-12-29T01:31:10;4.35;;;2.28;;
11839;SDS011;5979;50.800;4.904;2023-12-29T01:33:38;8.77;;;3.40;;
11839;SDS011;5979;50.800;4.904;2023-12-29T01:36:04;4.63;;;2.38;;
11839;SDS011;5979;50.800;4.904;2023-12-29T01:38:30;3.35;;;2.30;;
11839;SDS011;5979;50.800;4.904;2023-12-29T01:40:56;8.27;;;2.58;;
11839;SDS011;5979;50.800;4.904;2023-12-29T01:43:21;8.40;;;3.55;;
11839;SDS011;5979;50.800;4.904;2023-12-29T01:45:47;7.97;;;2.80;;
11839;SDS011;5979;50.800;4.904;2023-12-29T01:48:13;3.92;;;2.25;;
11839;SDS011;5979;50.800;4.904;2023-12-29T01:50:39;6.35;;;2.70;;
11839;SDS011;5979;50.800;4.904;2023-12-29T01:53:05;6.70;;;2.33;;
11839;SDS011;5979;50.800;4.904;2023-12-29T01:55:31;4.43;;;2.10;;
11839;SDS011;5979;50.800;4.904;2023-12-29T01:57:58;3.63;;;2.20;;
11839;SDS011;5979;50.800;4.904;2023-12-29T02:00:24;5.68;;;2.40;;
11839;SDS011;5979;50.800;4.904;2023-12-29T02:02:51;3.60;;;2.17;;
11839;SDS011;5979;50.800;4.904;2023-12-29T02:05:17;5.15;;;2.65;;
11839;SDS011;5979;50.800;4.904;2023-12-29T02:07:48;5.80;;;2.15;;
11839;SDS011;5979;50.800;4.904;2023-12-29T02:10:16;4.07;;;2.60;;
11839;SDS011;5979;50.800;4.904;2023-12-29T02:12:43;7.35;;;2.25;;
11839;SDS011;5979;50.800;4.904;2023-12-29T02:15:12;5.63;;;2.28;;
11839;SDS011;5979;50.800;4.904;2023-12-29T02:17:40;6.90;;;2.50;;
11839;SDS011;5979;50.800;4.904;2023-12-29T02:20:09;5.43;;;2.50;;
11839;SDS011;5979;50.800;4.904;2023-12-29T02:22:36;6.50;;;2.40;;
11839;SDS011;5979;50.800;4.904;2023-12-29T02:25:02;4.28;;;2.00;;
11839;SDS011;5979;50.800;4.904;2023-12-29T02:27:34;6.82;;;2.30;;
11839;SDS011;5979;50.800;4.904;2023-12-29T02:30:20;7.50;;;2.20;;
11839;SDS011;5979;50.800;4.904;2023-12-29T02:32:48;6.13;;;2.25;;
11839;SDS011;5979;50.800;4.904;2023-12-29T02:35:18;4.28;;;2.10;;
11839;SDS011;5979;50.800;4.904;2023-12-29T02:37:48;2.80;;;2.10;;
11839;SDS011;5979;50.800;4.904;2023-12-29T02:40:14;6.70;;;2.72;;
11839;SDS011;5979;50.800;4.904;2023-12-29T02:42:44;8.15;;;2.78;;
11839;SDS011;5979;50.800;4.904;2023-12-29T02:45:12;6.38;;;2.10;;
11839;SDS011;5979;50.800;4.904;2023-12-29T02:47:38;2.67;;;2.10;;
11839;SDS011;5979;50.800;4.904;2023-12-29T02:50:04;10.07;;;3.15;;
11839;SDS011;5979;50.800;4.904;2023-12-29T02:52:30;7.00;;;2.70;;
11839;SDS011;5979;50.800;4.904;2023-12-29T02:54:55;4.90;;;2.03;;
11839;SDS011;5979;50.800;4.904;2023-12-29T02:57:21;7.05;;;2.20;;
11839;SDS011;5979;50.800;4.904;2023-12-29T02:59:46;9.70;;;2.15;;
11839;SDS011;5979;50.800;4.904;2023-12-29T03:02:12;5.32;;;2.03;;
11839;SDS011;5979;50.800;4.904;2023-12-29T03:04:38;5.43;;;2.60;;
11839;SDS011;5979;50.800;4.904;2023-12-29T03:07:04;5.00;;;1.98;;
11839;SDS011;5979;50.800;4.904;2023-12-29T03:09:29;5.85;;;2.13;;
11839;SDS011;5979;50.800;4.904;2023-12-29T03:11:55;5.43;;;2.25;;
11839;SDS011;5979;50.800;4.904;2023-12-29T03:14:21;10.50;;;2.30;;
11839;SDS011;5979;50.800;4.904;2023-12-29T03:16:46;6.43;;;2.20;;
11839;SDS011;5979;50.800;4.904;2023-12-29T03:19:12;4.93;;;2.33;;
11839;SDS011;5979;50.800;4.904;2023-12-29T03:21:37;3.88;;;1.90;;
11839;SDS011;5979;50.800;4.904;2023-12-29T03:24:03;6.38;;;2.35;;
11839;SDS011;5979;50.800;4.904;2023-12-29T03:26:29;6.40;;;2.25;;
11839;SDS011;5979;50.800;4.904;2023-12-29T03:28:54;4.18;;;1.90;;
11839;SDS011;5979;50.800;4.904;2023-12-29T03:31:20;8.02;;;2.00;;
11839;SDS011;5979;50.800;4.904;2023-12-29T03:33:46;7.20;;;2.10;;
11839;SDS011;5979;50.800;4.904;2023-12-29T03:36:12;4.18;;;1.73;;
11839;SDS011;5979;50.800;4.904;2023-12-29T03:38:38;4.43;;;1.95;;
11839;SDS011;5979;50.800;4.904;2023-12-29T03:41:03;5.15;;;1.85;;
11839;SDS011;5979;50.800;4.904;2023-12-29T03:43:29;11.70;;;2.78;;
11839;SDS011;5979;50.800;4.904;2023-12-29T03:48:46;5.13;;;2.22;;
11839;SDS011;5979;50.800;4.904;2023-12-29T03:51:12;9.27;;;2.22;;
11839;SDS011;5979;50.800;4.904;2023-12-29T03:53:38;5.72;;;2.25;;
11839;SDS011;5979;50.800;4.904;2023-12-29T03:56:08;5.80;;;1.92;;
11839;SDS011;5979;50.800;4.904;2023-12-29T03:58:34;7.88;;;2.00;;
11839;SDS011;5979;50.800;4.904;2023-12-29T04:01:00;6.63;;;2.30;;
11839;SDS011;5979;50.800;4.904;2023-12-29T04:03:27;7.25;;;2.38;;
11839;SDS011;5979;50.800;4.904;2023-12-29T04:05:52;4.47;;;1.88;;
11839;SDS011;5979;50.800;4.904;2023-12-29T04:08:18;7.60;;;2.00;;
11839;SDS011;5979;50.800;4.904;2023-12-29T04:10:44;4.10;;;2.00;;
11839;SDS011;5979;50.800;4.904;2023-12-29T04:13:10;9.15;;;2.22;;
11839;SDS011;5979;50.800;4.904;2023-12-29T04:15:35;5.22;;;2.33;;
11839;SDS011;5979;50.800;4.904;2023-12-29T04:18:01;9.68;;;2.50;;
11839;SDS011;5979;50.800;4.904;2023-12-29T04:20:26;5.03;;;1.77;;
11839;SDS011;5979;50.800;4.904;2023-12-29T04:22:52;5.97;;;2.03;;
11839;SDS011;5979;50.800;4.904;2023-12-29T04:25:20;4.13;;;2.10;;
11839;SDS011;5979;50.800;4.904;2023-12-29T04:27:46;5.70;;;2.13;;
11839;SDS011;5979;50.800;4.904;2023-12-29T04:30:12;4.63;;;2.17;;
11839;SDS011;5979;50.800;4.904;2023-12-29T04:32:38;5.13;;;2.38;;
11839;SDS011;5979;50.800;4.904;2023-12-29T04:35:04;6.45;;;2.25;;
11839;SDS011;5979;50.800;4.904;2023-12-29T04:37:30;6.32;;;2.20;;
11839;SDS011;5979;50.800;4.904;2023-12-29T04:39:56;5.80;;;2.17;;
11839;SDS011;5979;50.800;4.904;2023-12-29T04:42:21;8.38;;;2.13;;
11839;SDS011;5979;50.800;4.904;2023-12-29T04:44:47;5.97;;;2.67;;
11839;SDS011;5979;50.800;4.904;2023-12-29T04:47:13;5.75;;;2.10;;
11839;SDS011;5979;50.800;4.904;2023-12-29T04:49:38;3.30;;;1.98;;
11839;SDS011;5979;50.800;4.904;2023-12-29T04:52:04;6.97;;;2.00;;
11839;SDS011;5979;50.800;4.904;2023-12-29T04:54:30;4.63;;;2.15;;
11839;SDS011;5979;50.800;4.904;2023-12-29T04:56:57;6.00;;;1.73;;
11839;SDS011;5979;50.800;4.904;2023-12-29T04:59:23;7.53;;;2.03;;
11839;SDS011;5979;50.800;4.904;2023-12-29T05:01:48;4.53;;;2.33;;
11839;SDS011;5979;50.800;4.904;2023-12-29T05:04:14;7.68;;;1.92;;
11839;SDS011;5979;50.800;4.904;2023-12-29T05:06:42;6.15;;;2.30;;
11839;SDS011;5979;50.800;4.904;2023-12-29T05:09:07;3.78;;;1.92;;
11839;SDS011;5979;50.800;4.904;2023-12-29T05:11:33;5.03;;;1.73;;
11839;SDS011;5979;50.800;4.904;2023-12-29T05:13:59;7.10;;;2.20;;
11839;SDS011;5979;50.800;4.904;2023-12-29T05:16:24;7.47;;;2.35;;
11839;SDS011;5979;50.800;4.904;2023-12-29T05:18:50;7.28;;;1.98;;
11839;SDS011;5979;50.800;4.904;2023-12-29T05:21:16;3.88;;;1.60;;
11839;SDS011;5979;50.800;4.904;2023-12-29T05:23:45;4.70;;;1.70;;
11839;SDS011;5979;50.800;4.904;2023-12-29T05:26:12;6.43;;;2.30;;
11839;SDS011;5979;50.800;4.904;2023-12-29T05:28:38;8.18;;;2.10;;
11839;SDS011;5979;50.800;4.904;2023-12-29T05:31:04;4.60;;;2.38;;
11839;SDS011;5979;50.800;4.904;2023-12-29T05:33:30;3.88;;;2.00;;
11839;SDS011;5979;50.800;4.904;2023-12-29T05:35:57;4.88;;;2.22;;
11839;SDS011;5979;50.800;4.904;2023-12-29T05:38:23;9.15;;;2.53;;
11839;SDS011;5979;50.800;4.904;2023-12-29T05:40:48;5.30;;;1.92;;
11839;SDS011;5979;50.800;4.904;2023-12-29T05:43:15;8.93;;;2.33;;
11839;SDS011;5979;50.800;4.904;2023-12-29T05:45:41;3.17;;;2.38;;
11839;SDS011;5979;50.800;4.904;2023-12-29T05:48:06;8.25;;;2.45;;
11839;SDS011;5979;50.800;4.904;2023-12-29T05:50:33;4.07;;;1.80;;
11839;SDS011;5979;50.800;4.904;2023-12-29T05:52:59;8.57;;;2.15;;
11839;SDS011;5979;50.800;4.904;2023-12-29T05:55:24;4.30;;;1.90;;
11839;SDS011;5979;50.800;4.904;2023-12-29T05:57:50;6.35;;;2.00;;
11839;SDS011;5979;50.800;4.904;2023-12-29T06:00:16;6.75;;;2.15;;
11839;SDS011;5979;50.800;4.904;2023-12-29T06:02:42;7.22;;;2.45;;
11839;SDS011;5979;50.800;4.904;2023-12-29T06:05:10;7.05;;;2.22;;
11839;SDS011;5979;50.800;4.904;2023-12-29T06:07:37;7.63;;;2.72;;
11839;SDS011;5979;50.800;4.904;2023-12-29T06:10:03;7.32;;;2.17;;
11839;SDS011;5979;50.800;4.904;2023-12-29T06:12:29;6.90;;;1.80;;
11839;SDS011;5979;50.800;4.904;2023-12-29T06:14:54;6.13;;;2.00;;
11839;SDS011;5979;50.800;4.904;2023-12-29T06:17:20;7.78;;;2.53;;
11839;SDS011;5979;50.800;4.904;2023-12-29T06:19:46;6.88;;;2.10;;
11839;SDS011;5979;50.800;4.904;2023-12-29T06:22:12;9.35;;;2.28;;
11839;SDS011;5979;50.800;4.904;2023-12-29T06:24:39;6.88;;;2.50;;
11839;SDS011;5979;50.800;4.904;2023-12-29T06:27:05;6.70;;;2.53;;
11839;SDS011;5979;50.800;4.904;2023-12-29T06:29:34;5.82;;;2.45;;
11839;SDS011;5979;50.800;4.904;2023-12-29T06:32:00;10.60;;;2.28;;
11839;SDS011;5979;50.800;4.904;2023-12-29T06:34:26;8.65;;;2.50;;
11839;SDS011;5979;50.800;4.904;2023-12-29T06:36:52;7.03;;;1.95;;
11839;SDS011;5979;50.800;4.904;2023-12-29T06:39:17;4.65;;;2.10;;
11839;SDS011;5979;50.800;4.904;2023-12-29T06:41:43;10.57;;;2.70;;
11839;SDS011;5979;50.800;4.904;2023-12-29T06:44:09;8.13;;;2.40;;
11839;SDS011;5979;50.800;4.904;2023-12-29T06:46:38;8.00;;;2.05;;
11839;SDS011;5979;50.800;4.904;2023-12-29T06:49:08;4.40;;;1.67;;
11839;SDS011;5979;50.800;4.904;2023-12-29T06:51:34;4.90;;;2.00;;
11839;SDS011;5979;50.800;4.904;2023-12-29T06:54:05;9.10;;;2.45;;
11839;SDS011;5979;50.800;4.904;2023-12-29T06:56:31;4.38;;;2.10;;
11839;SDS011;5979;50.800;4.904;2023-12-29T06:58:57;6.40;;;2.38;;
11839;SDS011;5979;50.800;4.904;2023-12-29T07:01:23;6.18;;;2.17;;
11839;SDS011;5979;50.800;4.904;2023-12-29T07:03:49;6.38;;;2.05;;
11839;SDS011;5979;50.800;4.904;2023-12-29T07:06:15;5.80;;;1.88;;
11839;SDS011;5979;50.800;4.904;2023-12-29T07:08:41;8.20;;;1.90;;
11839;SDS011;5979;50.800;4.904;2023-12-29T07:11:10;6.07;;;2.13;;
11839;SDS011;5979;50.800;4.904;2023-12-29T07:13:37;3.88;;;2.00;;
11839;SDS011;5979;50.800;4.904;2023-12-29T07:16:03;6.40;;;1.70;;
11839;SDS011;5979;50.800;4.904;2023-12-29T07:18:29;4.18;;;2.10;;
11839;SDS011;5979;50.800;4.904;2023-12-29T07:20:55;4.88;;;1.88;;
11839;SDS011;5979;50.800;4.904;2023-12-29T07:23:20;3.83;;;1.63;;
11839;SDS011;5979;50.800;4.904;2023-12-29T07:25:47;7.47;;;1.80;;
11839;SDS011;5979;50.800;4.904;2023-12-29T07:28:13;6.07;;;2.55;;
11839;SDS011;5979;50.800;4.904;2023-12-29T07:30:39;6.75;;;1.92;;
11839;SDS011;5979;50.800;4.904;2023-12-29T07:33:05;4.93;;;1.83;;
11839;SDS011;5979;50.800;4.904;2023-12-29T07:35:30;3.30;;;1.65;;
11839;SDS011;5979;50.800;4.904;2023-12-29T07:37:57;6.85;;;1.95;;
11839;SDS011;5979;50.800;4.904;2023-12-29T07:40:23;6.75;;;2.15;;
11839;SDS011;5979;50.800;4.904;2023-12-29T07:42:48;6.15;;;2.20;;
11839;SDS011;5979;50.800;4.904;2023-12-29T07:45:15;3.75;;;1.63;;
11839;SDS011;5979;50.800;4.904;2023-12-29T07:47:42;4.22;;;1.67;;
11839;SDS011;5979;50.800;4.904;2023-12-29T07:50:08;6.68;;;1.88;;
11839;SDS011;5979;50.800;4.904;2023-12-29T07:52:34;4.90;;;2.60;;
11839;SDS011;5979;50.800;4.904;2023-12-29T07:55:00;8.18;;;1.80;;
11839;SDS011;5979;50.800;4.904;2023-12-29T07:57:26;7.53;;;2.40;;
11839;SDS011;5979;50.800;4.904;2023-12-29T08:02:36;7.30;;;2.05;;
11839;SDS011;5979;50.800;4.904;2023-12-29T08:05:02;10.45;;;2.10;;
11839;SDS011;5979;50.800;4.904;2023-12-29T08:07:28;5.88;;;1.85;;
11839;SDS011;5979;50.800;4.904;2023-12-29T08:09:54;2.97;;;1.75;;
11839;SDS011;5979;50.800;4.904;2023-12-29T08:12:19;6.57;;;2.20;;
11839;SDS011;5979;50.800;4.904;2023-12-29T08:14:45;4.43;;;1.70;;
11839;SDS011;5979;50.800;4.904;2023-12-29T08:17:11;4.30;;;1.98;;
11839;SDS011;5979;50.800;4.904;2023-12-29T08:19:37;5.28;;;1.90;;
11839;SDS011;5979;50.800;4.904;2023-12-29T08:22:03;5.05;;;2.08;;
11839;SDS011;5979;50.800;4.904;2023-12-29T08:24:29;5.03;;;2.45;;
11839;SDS011;5979;50.800;4.904;2023-12-29T08:26:54;5.82;;;2.13;;
11839;SDS011;5979;50.800;4.904;2023-12-29T08:29:20;5.13;;;1.60;;
11839;SDS011;5979;50.800;4.904;2023-12-29T08:31:46;4.22;;;1.67;;
11839;SDS011;5979;50.800;4.904;2023-12-29T08:34:12;4.95;;;1.85;;
11839;SDS011;5979;50.800;4.904;2023-12-29T08:36:38;5.57;;;1.80;;
11839;SDS011;5979;50.800;4.904;2023-12-29T08:39:03;4.30;;;1.73;;
11839;SDS011;5979;50.800;4.904;2023-12-29T08:41:29;5.10;;;1.88;;
11839;SDS011;5979;50.800;4.904;2023-12-29T08:46:45;3.75;;;1.67;;
11839;SDS011;5979;50.800;4.904;2023-12-29T08:49:11;5.13;;;1.98;;
11839;SDS011;5979;50.800;4.904;2023-12-29T08:51:37;3.72;;;2.10;;
11839;SDS011;5979;50.800;4.904;2023-12-29T08:54:03;6.25;;;2.30;;
11839;SDS011;5979;50.800;4.904;2023-12-29T08:56:28;4.40;;;2.20;;
11839;SDS011;5979;50.800;4.904;2023-12-29T08:58:54;9.18;;;2.28;;
11839;SDS011;5979;50.800;4.904;2023-12-29T09:01:20;4.25;;;1.60;;
11839;SDS011;5979;50.800;4.904;2023-12-29T09:03:46;7.82;;;2.63;;
11839;SDS011;5979;50.800;4.904;2023-12-29T09:06:11;8.73;;;2.17;;
11839;SDS011;5979;50.800;4.904;2023-12-29T09:08:37;5.53;;;1.85;;
11839;SDS011;5979;50.800;4.904;2023-12-29T09:11:03;8.50;;;2.03;;
11839;SDS011;5979;50.800;4.904;2023-12-29T09:16:49;5.30;;;1.88;;
11839;SDS011;5979;50.800;4.904;2023-12-29T09:19:15;5.97;;;1.85;;
11839;SDS011;5979;50.800;4.904;2023-12-29T09:21:41;8.70;;;2.17;;
11839;SDS011;5979;50.800;4.904;2023-12-29T09:24:07;3.63;;;2.00;;
11839;SDS011;5979;50.800;4.904;2023-12-29T09:26:33;6.93;;;1.75;;
11839;SDS011;5979;50.800;4.904;2023-12-29T09:28:58;3.28;;;1.65;;
11839;SDS011;5979;50.800;4.904;2023-12-29T09:31:24;3.75;;;1.73;;
11839;SDS011;5979;50.800;4.904;2023-12-29T09:33:50;5.55;;;1.70;;
11839;SDS011;5979;50.800;4.904;2023-12-29T09:39:08;5.38;;;1.60;;
11839;SDS011;5979;50.800;4.904;2023-12-29T09:41:33;10.00;;;1.88;;
11839;SDS011;5979;50.800;4.904;2023-12-29T09:44:04;4.70;;;1.70;;
11839;SDS011;5979;50.800;4.904;2023-12-29T09:46:35;6.30;;;1.80;;
11839;SDS011;5979;50.800;4.904;2023-12-29T09:49:02;2.40;;;1.77;;
11839;SDS011;5979;50.800;4.904;2023-12-29T09:51:31;3.70;;;1.70;;
11839;SDS011;5979;50.800;4.904;2023-12-29T09:53:57;2.38;;;1.50;;
11839;SDS011;5979;50.800;4.904;2023-12-29T09:56:24;6.00;;;1.88;;
11839;SDS011;5979;50.800;4.904;2023-12-29T09:58:50;4.18;;;1.75;;
11839;SDS011;5979;50.800;4.904;2023-12-29T10:01:17;4.28;;;1.73;;
11839;SDS011;5979;50.800;4.904;2023-12-29T10:03:47;4.93;;;1.63;;
11839;SDS011;5979;50.800;4.904;2023-12-29T10:06:14;5.93;;;1.85;;
11839;SDS011;5979;50.800;4.904;2023-12-29T10:08:45;2.60;;;1.60;;
11839;SDS011;5979;50.800;4.904;2023-12-29T10:11:11;2.55;;;1.65;;
11839;SDS011;5979;50.800;4.904;2023-12-29T10:13:40;6.00;;;2.10;;
11839;SDS011;5979;50.800;4.904;2023-12-29T10:16:13;6.22;;;2.00;;
11839;SDS011;5979;50.800;4.904;2023-12-29T10:18:57;4.25;;;1.63;;
11839;SDS011;5979;50.800;4.904;2023-12-29T10:21:57;3.67;;;1.75;;
11839;SDS011;5979;50.800;4.904;2023-12-29T10:24:32;2.03;;;1.50;;
11839;SDS011;5979;50.800;4.904;2023-12-29T10:26:58;3.60;;;1.60;;
11839;SDS011;5979;50.800;4.904;2023-12-29T10:29:23;1.83;;;1.60;;
11839;SDS011;5979;50.800;4.904;2023-12-29T10:31:52;6.85;;;2.55;;
11839;SDS011;5979;50.800;4.904;2023-12-29T10:36:57;4.15;;;1.88;;
11839;SDS011;5979;50.800;4.904;2023-12-29T10:39:23;4.03;;;1.35;;
11839;SDS011;5979;50.800;4.904;2023-12-29T10:41:50;5.38;;;1.73;;
11839;SDS011;5979;50.800;4.904;2023-12-29T10:44:27;6.10;;;1.50;;
11839;SDS011;5979;50.800;4.904;2023-12-29T10:46:53;4.05;;;1.70;;
11839;SDS011;5979;50.800;4.904;2023-12-29T10:49:18;5.38;;;1.70;;
11839;SDS011;5979;50.800;4.904;2023-12-29T10:51:44;3.78;;;1.83;;
11839;SDS011;5979;50.800;4.904;2023-12-29T10:54:16;4.25;;;1.60;;
11839;SDS011;5979;50.800;4.904;2023-12-29T10:56:47;2.88;;;1.65;;
11839;SDS011;5979;50.800;4.904;2023-12-29T10:59:25;2.17;;;1.50;;
11839;SDS011;5979;50.800;4.904;2023-12-29T11:01:50;2.65;;;1.60;;
11839;SDS011;5979;50.800;4.904;2023-12-29T11:04:21;3.28;;;1.48;;
11839;SDS011;5979;50.800;4.904;2023-12-29T11:06:47;4.30;;;1.63;;
11839;SDS011;5979;50.800;4.904;2023-12-29T11:09:37;4.28;;;1.30;;
11839;SDS011;5979;50.800;4.904;2023-12-29T11:12:02;2.40;;;1.20;;
11839;SDS011;5979;50.800;4.904;2023-12-29T11:14:29;6.32;;;1.70;;
11839;SDS011;5979;50.800;4.904;2023-12-29T11:16:58;3.60;;;2.05;;
11839;SDS011;5979;50.800;4.904;2023-12-29T11:19:26;3.67;;;1.40;;
11839;SDS011;5979;50.800;4.904;2023-12-29T11:21:52;2.08;;;1.23;;
11839;SDS011;5979;50.800;4.904;2023-12-29T11:24:20;2.42;;;1.10;;
11839;SDS011;5979;50.800;4.904;2023-12-29T11:26:47;2.97;;;1.23;;
11839;SDS011;5979;50.800;4.904;2023-12-29T11:29:15;2.53;;;1.30;;
11839;SDS011;5979;50.800;4.904;2023-12-29T11:31:41;2.97;;;1.50;;
11839;SDS011;5979;50.800;4.904;2023-12-29T11:34:13;2.90;;;1.27;;
11839;SDS011;5979;50.800;4.904;2023-12-29T11:36:56;4.18;;;1.58;;
11839;SDS011;5979;50.800;4.904;2023-12-29T11:39:50;4.35;;;1.50;;
11839;SDS011;5979;50.800;4.904;2023-12-29T11:42:26;5.28;;;1.73;;
11839;SDS011;5979;50.800;4.904;2023-12-29T11:44:56;3.58;;;1.50;;
11839;SDS011;5979;50.800;4.904;2023-12-29T11:47:35;4.40;;;1.48;;
11839;SDS011;5979;50.800;4.904;2023-12-29T11:50:04;4.57;;;1.50;;
11839;SDS011;5979;50.800;4.904;2023-12-29T11:55:09;2.33;;;1.40;;
11839;SDS011;5979;50.800;4.904;2023-12-29T11:57:35;4.93;;;2.13;;
11839;SDS011;5979;50.800;4.904;2023-12-29T12:00:05;4.28;;;1.83;;
11839;SDS011;5979;50.800;4.904;2023-12-29T12:02:31;2.95;;;1.50;;
11839;SDS011;5979;50.800;4.904;2023-12-29T12:04:57;5.00;;;2.28;;
11839;SDS011;5979;50.800;4.904;2023-12-29T12:09:49;5.18;;;1.63;;
11839;SDS011;5979;50.800;4.904;2023-12-29T12:17:51;1.70;;;1.33;;
11839;SDS011;5979;50.800;4.904;2023-12-29T12:20:17;3.83;;;1.80;;
11839;SDS011;5979;50.800;4.904;2023-12-29T12:22:43;4.00;;;1.60;;
11839;SDS011;5979;50.800;4.904;2023-12-29T12:25:13;6.28;;;1.70;;
11839;SDS011;5979;50.800;4.904;2023-12-29T12:27:40;2.90;;;1.80;;
11839;SDS011;5979;50.800;4.904;2023-12-29T12:30:06;3.15;;;1.80;;
11839;SDS011;5979;50.800;4.904;2023-12-29T12:32:34;5.25;;;2.22;;
11839;SDS011;5979;50.800;4.904;2023-12-29T12:35:00;4.28;;;1.67;;
11839;SDS011;5979;50.800;4.904;2023-12-29T12:37:27;4.68;;;1.35;;
11839;SDS011;5979;50.800;4.904;2023-12-29T12:39:54;4.10;;;2.22;;
11839;SDS011;5979;50.800;4.904;2023-12-29T12:42:20;2.33;;;1.45;;
11839;SDS011;5979;50.800;4.904;2023-12-29T12:44:56;5.05;;;1.88;;
11839;SDS011;5979;50.800;4.904;2023-12-29T12:47:52;5.00;;;1.75;;
11839;SDS011;5979;50.800;4.904;2023-12-29T12:50:18;3.75;;;2.08;;
11839;SDS011;5979;50.800;4.904;2023-12-29T12:52:45;9.50;;;2.22;;
11839;SDS011;5979;50.800;4.904;2023-12-29T12:55:11;3.83;;;1.70;;
11839;SDS011;5979;50.800;4.904;2023-12-29T12:57:38;2.55;;;1.92;;
11839;SDS011;5979;50.800;4.904;2023-12-29T13:00:04;4.65;;;1.92;;
11839;SDS011;5979;50.800;4.904;2023-12-29T13:02:31;3.22;;;1.60;;
11839;SDS011;5979;50.800;4.904;2023-12-29T13:04:57;5.45;;;1.48;;
11839;SDS011;5979;50.800;4.904;2023-12-29T13:07:23;2.45;;;1.80;;
11839;SDS011;5979;50.800;4.904;2023-12-29T13:09:49;5.50;;;1.30;;
11839;SDS011;5979;50.800;4.904;2023-12-29T13:12:17;4.25;;;2.03;;
11839;SDS011;5979;50.800;4.904;2023-12-29T13:14:43;5.20;;;1.73;;
11839;SDS011;5979;50.800;4.904;2023-12-29T13:17:11;6.32;;;1.90;;
11839;SDS011;5979;50.800;4.904;2023-12-29T13:19:39;3.85;;;1.67;;
11839;SDS011;5979;50.800;4.904;2023-12-29T13:22:06;5.10;;;1.88;;
11839;SDS011;5979;50.800;4.904;2023-12-29T13:24:33;2.33;;;1.80;;
11839;SDS011;5979;50.800;4.904;2023-12-29T13:27:06;4.97;;;1.70;;
11839;SDS011;5979;50.800;4.904;2023-12-29T13:29:35;3.90;;;1.33;;
11839;SDS011;5979;50.800;4.904;2023-12-29T13:32:07;2.90;;;1.42;;
11839;SDS011;5979;50.800;4.904;2023-12-29T13:37:35;1.10;;;1.10;;
11839;SDS011;5979;50.800;4.904;2023-12-29T13:40:14;4.85;;;1.23;;
11839;SDS011;5979;50.800;4.904;2023-12-29T13:42:47;2.38;;;1.08;;
11839;SDS011;5979;50.800;4.904;2023-12-29T13:45:15;3.22;;;1.13;;
11839;SDS011;5979;50.800;4.904;2023-12-29T13:47:42;4.88;;;1.27;;
11839;SDS011;5979;50.800;4.904;2023-12-29T13:50:09;3.20;;;1.13;;
11839;SDS011;5979;50.800;4.904;2023-12-29T13:52:35;2.85;;;1.00;;
11839;SDS011;5979;50.800;4.904;2023-12-29T13:55:02;0.95;;;0.70;;
11839;SDS011;5979;50.800;4.904;2023-12-29T13:57:32;1.08;;;0.93;;
11839;SDS011;5979;50.800;4.904;2023-12-29T14:00:18;1.92;;;0.90;;
11839;SDS011;5979;50.800;4.904;2023-12-29T14:03:10;3.50;;;1.27;;
11839;SDS011;5979;50.800;4.904;2023-12-29T14:05:36;2.92;;;0.88;;
11839;SDS011;5979;50.800;4.904;2023-12-29T14:08:24;2.38;;;0.95;;
11839;SDS011;5979;50.800;4.904;2023-12-29T14:10:51;0.90;;;0.90;;
11839;SDS011;5979;50.800;4.904;2023-12-29T14:13:18;1.30;;;1.10;;
11839;SDS011;5979;50.800;4.904;2023-12-29T14:15:45;1.52;;;0.90;;
11839;SDS011;5979;50.800;4.904;2023-12-29T14:20:55;1.38;;;1.02;;
11839;SDS011;5979;50.800;4.904;2023-12-29T14:23:20;2.75;;;1.40;;
11839;SDS011;5979;50.800;4.904;2023-12-29T14:25:46;1.10;;;0.93;;
11839;SDS011;5979;50.800;4.904;2023-12-29T14:28:16;3.13;;;1.20;;
11839;SDS011;5979;50.800;4.904;2023-12-29T14:30:43;3.65;;;1.52;;
11839;SDS011;5979;50.800;4.904;2023-12-29T14:33:09;4.47;;;1.33;;
11839;SDS011;5979;50.800;4.904;2023-12-29T14:35:35;1.63;;;1.50;;
11839;SDS011;5979;50.800;4.904;2023-12-29T14:38:01;2.70;;;1.67;;
11839;SDS011;5979;50.800;4.904;2023-12-29T14:40:27;3.63;;;1.58;;
11839;SDS011;5979;50.800;4.904;2023-12-29T14:42:53;4.47;;;1.67;;
11839;SDS011;5979;50.800;4.904;2023-12-29T14:45:19;1.63;;;1.52;;
11839;SDS011;5979;50.800;4.904;2023-12-29T14:47:45;4.13;;;1.33;;
11839;SDS011;5979;50.800;4.904;2023-12-29T14:50:11;5.95;;;1.60;;
11839;SDS011;5979;50.800;4.904;2023-12-29T14:52:37;4.35;;;1.80;;
11839;SDS011;5979;50.800;4.904;2023-12-29T14:55:03;4.15;;;2.30;;
11839;SDS011;5979;50.800;4.904;2023-12-29T14:57:29;3.38;;;1.63;;
11839;SDS011;5979;50.800;4.904;2023-12-29T14:59:55;2.08;;;1.73;;
11839;SDS011;5979;50.800;4.904;2023-12-29T15:02:21;5.13;;;1.85;;
11839;SDS011;5979;50.800;4.904;2023-12-29T15:04:47;3.70;;;2.00;;
11839;SDS011;5979;50.800;4.904;2023-12-29T15:07:14;6.57;;;2.45;;
11839;SDS011;5979;50.800;4.904;2023-12-29T15:09:40;4.28;;;1.85;;
11839;SDS011;5979;50.800;4.904;2023-12-29T15:12:06;2.15;;;1.40;;
11839;SDS011;5979;50.800;4.904;2023-12-29T15:14:32;5.57;;;1.67;;
11839;SDS011;5979;50.800;4.904;2023-12-29T15:16:58;6.00;;;1.58;;
11839;SDS011;5979;50.800;4.904;2023-12-29T15:19:24;3.17;;;1.75;;
11839;SDS011;5979;50.800;4.904;2023-12-29T15:21:49;2.72;;;1.70;;
11839;SDS011;5979;50.800;4.904;2023-12-29T15:24:18;2.97;;;1.85;;
11839;SDS011;5979;50.800;4.904;2023-12-29T15:26:45;3.25;;;1.85;;
11839;SDS011;5979;50.800;4.904;2023-12-29T15:29:10;2.55;;;1.80;;
11839;SDS011;5979;50.800;4.904;2023-12-29T15:31:36;5.28;;;1.52;;
11839;SDS011;5979;50.800;4.904;2023-12-29T15:34:02;6.22;;;1.90;;
11839;SDS011;5979;50.800;4.904;2023-12-29T15:36:28;2.30;;;2.00;;